Time;durP1;ratioP1;P1;durP2;ratioP2;P2;SDS_P1;SDS_P2;PMS_P1;PMS_P2;Temp;Humidity;BMP_temperature;BMP_pressure;BME280_temperature;BME280_humidity;BME280_pressure;Samples;Min_cycle;Max_cycle;Signal;HPM_P1;HPM_P2
2021/08/14 00:02:10;;;;;;;;;;;17.20;99.90;;;;;;1896309;74;20181;-74
2021/08/14 00:04:37;;;;;;;;;;;17.30;99.90;;;;;;1895470;75;20204;-73
2021/08/14 00:07:04;;;;;;;;;;;17.30;99.90;;;;;;1879051;75;20192;-74
2021/08/14 00:09:34;;;;;;;;;;;17.30;99.90;;;;;;1887362;75;20365;-74
2021/08/14 00:11:59;;;;;;;;;;;17.20;99.90;;;;;;1880115;75;20185;-73
2021/08/14 00:14:26;;;;;;;;;;;17.30;99.90;;;;;;1897434;75;20224;-73
2021/08/14 00:16:53;;;;;;;;;;;17.30;99.90;;;;;;1904412;74;20467;-73
2021/08/14 00:19:20;;;;;;;;;;;17.40;99.90;;;;;;1890469;74;20217;-73
2021/08/14 00:21:46;;;;;;;;;;;17.40;99.90;;;;;;1906374;74;20530;-73
2021/08/14 00:24:13;;;;;;;;;;;17.70;99.90;;;;;;1886368;74;20225;-73
2021/08/14 00:26:40;;;;;;;;;;;17.60;99.90;;;;;;1891232;74;20221;-73
2021/08/14 00:29:07;;;;;;;;;;;17.60;99.90;;;;;;1888825;74;20175;-73
2021/08/14 00:31:34;;;;;;;;;;;17.60;99.90;;;;;;1900076;74;20172;-74
2021/08/14 00:34:00;;;;;;;;;;;17.50;99.90;;;;;;1896843;74;20501;-73
2021/08/14 00:36:27;;;;;;;;;;;17.50;99.90;;;;;;1899757;75;20162;-73
2021/08/14 00:38:54;;;;;;;;;;;17.70;99.90;;;;;;1897865;74;20562;-73
2021/08/14 00:41:21;;;;;;;;;;;17.70;99.90;;;;;;1890970;74;20806;-73
2021/08/14 00:43:48;;;;;;;;;;;17.70;99.90;;;;;;1888138;75;20243;-73
2021/08/14 00:46:15;;;;;;;;;;;17.60;99.90;;;;;;1894602;74;20403;-73
2021/08/14 00:48:42;;;;;;;;;;;17.50;99.90;;;;;;1873925;75;20307;-73
2021/08/14 00:51:08;;;;;;;;;;;17.30;99.90;;;;;;1908504;74;20185;-73
2021/08/14 00:53:36;;;;;;;;;;;17.30;99.90;;;;;;1893452;75;20258;-72
2021/08/14 00:56:04;;;;;;;;;;;17.40;99.90;;;;;;1898308;75;20404;-73
2021/08/14 00:58:33;;;;;;;;;;;17.20;99.90;;;;;;1893838;74;20496;-74
2021/08/14 01:00:59;;;;;;;;;;;17.20;99.90;;;;;;1884629;75;20153;-75
2021/08/14 01:03:27;;;;;;;;;;;17.10;99.90;;;;;;1896102;75;20879;-75
2021/08/14 01:05:55;;;;;;;;;;;17.00;99.90;;;;;;1889383;75;20429;-75
2021/08/14 01:08:22;;;;;;;;;;;17.00;99.90;;;;;;1888824;75;20506;-74
2021/08/14 01:10:49;;;;;;;;;;;17.00;99.90;;;;;;1892631;75;20482;-74
2021/08/14 01:13:16;;;;;;;;;;;17.00;99.90;;;;;;1889069;75;20153;-75
2021/08/14 01:15:44;;;;;;;;;;;17.10;99.90;;;;;;1893863;75;20246;-75
2021/08/14 01:18:12;;;;;;;;;;;17.00;99.90;;;;;;1885057;75;20560;-75
2021/08/14 01:20:39;;;;;;;;;;;17.10;99.90;;;;;;1893674;75;21186;-74
2021/08/14 01:23:06;;;;;;;;;;;17.00;99.90;;;;;;1888261;75;20193;-74
2021/08/14 01:25:33;;;;;;;;;;;17.00;99.90;;;;;;1886125;74;20221;-74
2021/08/14 01:28:00;;;;;;;;;;;16.90;99.90;;;;;;1892225;75;20310;-74
2021/08/14 01:30:26;;;;;;;;;;;16.90;99.90;;;;;;1900568;74;20232;-74
2021/08/14 01:32:54;;;;;;;;;;;16.90;99.90;;;;;;1897585;74;20455;-74
2021/08/14 01:35:21;;;;;;;;;;;16.90;99.90;;;;;;1888262;74;20460;-73
2021/08/14 01:37:48;;;;;;;;;;;17.00;99.90;;;;;;1895961;74;20227;-73
2021/08/14 01:40:15;;;;;;;;;;;17.20;99.90;;;;;;1881649;75;20172;-73
2021/08/14 01:42:42;;;;;;;;;;;17.30;99.90;;;;;;1896138;74;20155;-74
2021/08/14 01:45:09;;;;;;;;;;;17.40;99.90;;;;;;1892144;74;20179;-74
2021/08/14 01:47:35;;;;;;;;;;;17.30;99.90;;;;;;1904622;74;20458;-73
2021/08/14 01:50:03;;;;;;;;;;;17.50;99.90;;;;;;1907663;74;20168;-74
2021/08/14 01:52:29;;;;;;;;;;;17.40;99.90;;;;;;1907093;74;20104;-73
2021/08/14 01:54:56;;;;;;;;;;;17.50;99.90;;;;;;1891057;74;20451;-73
2021/08/14 01:57:23;;;;;;;;;;;17.50;99.90;;;;;;1895771;74;20184;-74
2021/08/14 01:59:50;;;;;;;;;;;17.50;99.90;;;;;;1887380;75;20365;-74
2021/08/14 02:02:16;;;;;;;;;;;17.30;99.90;;;;;;1892166;74;20357;-73
2021/08/14 02:04:43;;;;;;;;;;;17.40;99.90;;;;;;1897665;74;20447;-73
2021/08/14 02:07:10;;;;;;;;;;;17.30;99.90;;;;;;1886918;74;20261;-73
2021/08/14 02:09:37;;;;;;;;;;;17.40;99.90;;;;;;1887853;74;20171;-74
2021/08/14 02:12:04;;;;;;;;;;;17.30;99.90;;;;;;1883712;75;20219;-73
2021/08/14 02:14:31;;;;;;;;;;;17.30;99.90;;;;;;1906986;74;20320;-73
2021/08/14 02:16:57;;;;;;;;;;;17.30;99.90;;;;;;1891675;75;20388;-73
2021/08/14 02:19:24;;;;;;;;;;;17.30;99.90;;;;;;1883498;75;20192;-73
2021/08/14 02:21:51;;;;;;;;;;;17.40;99.90;;;;;;1881580;74;20191;-73
2021/08/14 02:24:18;;;;;;;;;;;17.30;99.90;;;;;;1891243;75;20229;-72
2021/08/14 02:26:45;;;;;;;;;;;17.40;99.90;;;;;;1890633;74;20531;-74
2021/08/14 02:29:12;;;;;;;;;;;17.30;99.90;;;;;;1903453;74;20167;-74
2021/08/14 02:31:38;;;;;;;;;;;17.20;99.90;;;;;;1908263;74;20462;-74
2021/08/14 02:34:05;;;;;;;;;;;17.20;99.90;;;;;;1900406;74;20556;-74
2021/08/14 02:36:32;;;;;;;;;;;17.20;99.90;;;;;;1900844;74;20201;-74
2021/08/14 02:38:59;;;;;;;;;;;17.20;99.90;;;;;;1898468;74;20440;-73
2021/08/14 02:41:26;;;;;;;;;;;17.20;99.90;;;;;;1897133;75;20185;-73
2021/08/14 02:43:53;;;;;;;;;;;17.20;99.90;;;;;;1889421;75;20261;-73
2021/08/14 02:46:19;;;;;;;;;;;17.30;99.90;;;;;;1885607;74;20222;-73
2021/08/14 02:48:46;;;;;;;;;;;17.20;99.90;;;;;;1909952;74;20171;-73
2021/08/14 02:51:14;;;;;;;;;;;17.20;99.90;;;;;;1867589;73;20469;-72
2021/08/14 02:53:41;;;;;;;;;;;17.20;99.90;;;;;;1873935;75;20151;-71
2021/08/14 02:56:08;;;;;;;;;;;17.20;99.90;;;;;;1896468;74;20192;-71
2021/08/14 02:58:35;;;;;;;;;;;17.20;99.90;;;;;;1898751;75;20161;-71
2021/08/14 03:01:01;;;;;;;;;;;17.20;99.90;;;;;;1857335;77;20210;-71
2021/08/14 03:03:28;;;;;;;;;;;17.20;99.90;;;;;;1862232;77;20258;-71
2021/08/14 03:05:55;;;;;;;;;;;17.20;99.90;;;;;;1862851;77;20149;-71
2021/08/14 03:08:22;;;;;;;;;;;17.20;99.90;;;;;;1864712;76;20200;-70
2021/08/14 03:10:49;;;;;;;;;;;17.20;99.90;;;;;;1894588;76;20180;-70
2021/08/14 03:13:16;;;;;;;;;;;17.30;99.90;;;;;;1857998;76;20358;-71
2021/08/14 03:15:43;;;;;;;;;;;17.20;99.90;;;;;;1893212;76;20212;-71
2021/08/14 03:18:09;;;;;;;;;;;17.20;99.90;;;;;;1867651;76;20155;-71
2021/08/14 03:20:36;;;;;;;;;;;17.20;99.90;;;;;;1862532;76;20175;-70
2021/08/14 03:23:03;;;;;;;;;;;17.30;99.90;;;;;;1885541;76;20107;-71
2021/08/14 03:25:30;;;;;;;;;;;17.30;99.90;;;;;;1878414;76;20848;-71
2021/08/14 03:27:57;;;;;;;;;;;17.20;99.90;;;;;;1887904;76;20161;-71
2021/08/14 03:30:24;;;;;;;;;;;17.20;99.90;;;;;;1846537;77;20194;-71
2021/08/14 03:32:52;;;;;;;;;;;17.20;99.90;;;;;;1861934;77;20444;-70
2021/08/14 03:35:19;;;;;;;;;;;17.10;99.90;;;;;;1889144;76;20185;-70
2021/08/14 03:37:46;;;;;;;;;;;17.10;99.90;;;;;;1892344;76;20471;-71
2021/08/14 03:40:13;;;;;;;;;;;17.10;99.90;;;;;;1893412;76;20177;-71
2021/08/14 03:42:40;;;;;;;;;;;17.10;99.90;;;;;;1882394;76;20205;-71
2021/08/14 03:45:07;;;;;;;;;;;17.00;99.90;;;;;;1870310;76;20230;-70
2021/08/14 03:47:34;;;;;;;;;;;17.10;99.90;;;;;;1889215;76;20169;-70
2021/08/14 03:50:00;;;;;;;;;;;17.20;99.90;;;;;;1891080;76;20173;-70
2021/08/14 03:52:27;;;;;;;;;;;17.20;99.90;;;;;;1907250;74;20179;-68
2021/08/14 03:54:54;;;;;;;;;;;17.20;99.90;;;;;;1873346;76;20171;-70
2021/08/14 03:57:21;;;;;;;;;;;17.20;99.90;;;;;;1886515;74;20181;-71
2021/08/14 03:59:48;;;;;;;;;;;17.20;99.90;;;;;;1922763;74;20184;-71
2021/08/14 04:02:15;;;;;;;;;;;17.20;99.90;;;;;;1905059;74;20524;-70
2021/08/14 04:04:42;;;;;;;;;;;17.20;99.90;;;;;;1901441;74;20126;-71
2021/08/14 04:07:09;;;;;;;;;;;17.20;99.90;;;;;;1926018;74;20199;-70
2021/08/14 04:09:36;;;;;;;;;;;17.20;99.90;;;;;;1922614;74;20158;-71
2021/08/14 04:12:03;;;;;;;;;;;17.10;99.90;;;;;;1925813;74;20477;-71
2021/08/14 04:14:29;;;;;;;;;;;17.10;99.90;;;;;;1919321;74;20163;-70
2021/08/14 04:16:56;;;;;;;;;;;17.20;99.90;;;;;;1918502;74;20215;-69
2021/08/14 04:19:23;;;;;;;;;;;17.20;99.90;;;;;;1896901;74;20184;-70
2021/08/14 04:21:50;;;;;;;;;;;17.20;99.90;;;;;;1896110;74;20268;-70
2021/08/14 04:24:17;;;;;;;;;;;17.20;99.90;;;;;;1881754;76;20170;-70
2021/08/14 04:26:44;;;;;;;;;;;17.00;99.90;;;;;;1912125;74;20450;-70
2021/08/14 04:29:10;;;;;;;;;;;17.10;99.90;;;;;;1904271;74;20223;-69
2021/08/14 04:31:37;;;;;;;;;;;17.10;99.90;;;;;;1923052;74;20210;-69
2021/08/14 04:34:04;;;;;;;;;;;17.10;99.90;;;;;;1899944;74;20431;-71
2021/08/14 04:36:31;;;;;;;;;;;17.10;99.90;;;;;;1895588;74;20336;-69
2021/08/14 04:38:57;;;;;;;;;;;17.10;99.90;;;;;;1902101;74;20452;-69
2021/08/14 04:41:24;;;;;;;;;;;17.10;99.90;;;;;;1910667;74;20126;-70
2021/08/14 04:43:51;;;;;;;;;;;17.10;99.90;;;;;;1878937;74;20599;-69
2021/08/14 04:46:18;;;;;;;;;;;17.20;99.90;;;;;;1919731;74;20161;-69
2021/08/14 04:48:45;;;;;;;;;;;17.00;99.90;;;;;;1897099;74;20500;-69
2021/08/14 04:51:11;;;;;;;;;;;16.90;99.90;;;;;;1917660;74;20165;-70
2021/08/14 04:53:38;;;;;;;;;;;17.00;99.90;;;;;;1891449;74;20175;-69
2021/08/14 04:56:05;;;;;;;;;;;17.10;99.90;;;;;;1892401;76;20167;-70
2021/08/14 04:58:32;;;;;;;;;;;17.10;99.90;;;;;;1918193;74;20184;-70
2021/08/14 05:00:59;;;;;;;;;;;17.20;99.90;;;;;;1906328;74;20434;-70
2021/08/14 05:03:25;;;;;;;;;;;17.10;99.90;;;;;;1904952;74;20176;-69
2021/08/14 05:05:52;;;;;;;;;;;17.10;99.90;;;;;;1903401;74;20442;-69
2021/08/14 05:08:19;;;;;;;;;;;17.10;99.90;;;;;;1907792;74;20164;-69
2021/08/14 05:10:46;;;;;;;;;;;17.20;99.90;;;;;;1906856;74;20179;-70
2021/08/14 05:13:13;;;;;;;;;;;17.10;99.90;;;;;;1902577;74;20184;-69
2021/08/14 05:15:39;;;;;;;;;;;17.00;99.90;;;;;;1907039;74;20211;-69
2021/08/14 05:18:06;;;;;;;;;;;17.10;99.90;;;;;;1915627;74;20238;-69
2021/08/14 05:20:33;;;;;;;;;;;17.10;99.90;;;;;;1885249;74;20214;-70
2021/08/14 05:23:00;;;;;;;;;;;17.20;99.90;;;;;;1891503;74;20466;-68
2021/08/14 05:25:28;;;;;;;;;;;17.20;99.90;;;;;;1890599;76;20235;-69
2021/08/14 05:27:55;;;;;;;;;;;17.20;99.90;;;;;;1891797;74;20174;-67
2021/08/14 05:30:22;;;;;;;;;;;17.20;99.90;;;;;;1909416;74;20184;-68
2021/08/14 05:32:48;;;;;;;;;;;17.20;99.90;;;;;;1899725;74;20207;-67
2021/08/14 05:35:15;;;;;;;;;;;17.10;99.90;;;;;;1901325;74;20168;-68
2021/08/14 05:37:42;;;;;;;;;;;17.10;99.90;;;;;;1902830;74;20169;-67
2021/08/14 05:40:09;;;;;;;;;;;17.10;99.90;;;;;;1897700;74;20183;-68
2021/08/14 05:42:36;;;;;;;;;;;17.20;99.90;;;;;;1890205;74;20201;-67
2021/08/14 05:45:03;;;;;;;;;;;17.10;99.90;;;;;;1896409;74;20254;-68
2021/08/14 05:47:30;;;;;;;;;;;17.00;99.90;;;;;;1904622;74;20243;-68
2021/08/14 05:49:57;;;;;;;;;;;17.20;99.90;;;;;;1899399;74;20108;-68
2021/08/14 05:52:24;;;;;;;;;;;17.20;99.90;;;;;;1875615;74;20187;-68
2021/08/14 05:54:50;;;;;;;;;;;17.20;99.90;;;;;;1919602;74;20183;-68
2021/08/14 05:57:17;;;;;;;;;;;17.20;99.90;;;;;;1875451;76;20844;-68
2021/08/14 05:59:44;;;;;;;;;;;17.20;99.90;;;;;;1882456;76;20189;-68
2021/08/14 06:02:11;;;;;;;;;;;17.30;99.90;;;;;;1892102;76;20124;-68
2021/08/14 06:04:38;;;;;;;;;;;17.30;99.90;;;;;;1887097;76;20225;-68
2021/08/14 06:07:04;;;;;;;;;;;17.30;99.90;;;;;;1892644;76;20178;-68
2021/08/14 06:09:31;;;;;;;;;;;17.40;99.90;;;;;;1892591;76;20377;-68
2021/08/14 06:11:59;;;;;;;;;;;17.40;99.90;;;;;;1888606;74;20156;-68
2021/08/14 06:14:26;;;;;;;;;;;17.30;99.90;;;;;;1894277;74;20231;-68
2021/08/14 06:16:53;;;;;;;;;;;17.40;99.90;;;;;;1893937;74;20249;-68
2021/08/14 06:19:20;;;;;;;;;;;17.30;99.90;;;;;;1901888;74;21035;-68
2021/08/14 06:21:47;;;;;;;;;;;17.30;99.90;;;;;;1888963;74;20179;-68
2021/08/14 06:24:13;;;;;;;;;;;17.30;99.90;;;;;;1888161;76;20123;-68
2021/08/14 06:26:40;;;;;;;;;;;17.30;99.90;;;;;;1892510;76;20174;-68
2021/08/14 06:29:07;;;;;;;;;;;17.20;99.90;;;;;;1892555;74;20208;-68
2021/08/14 06:31:34;;;;;;;;;;;17.30;99.90;;;;;;1892034;75;20430;-68
2021/08/14 06:34:01;;;;;;;;;;;17.40;99.90;;;;;;1890749;76;20183;-68
2021/08/14 06:36:28;;;;;;;;;;;17.40;99.90;;;;;;1892257;74;20125;-68
2021/08/14 06:38:56;;;;;;;;;;;17.40;99.90;;;;;;1890505;76;20456;-68
2021/08/14 06:41:23;;;;;;;;;;;17.40;99.90;;;;;;1890963;76;20199;-68
2021/08/14 06:43:50;;;;;;;;;;;17.40;99.90;;;;;;1891190;76;20167;-68
2021/08/14 06:46:16;;;;;;;;;;;17.40;99.90;;;;;;1891197;76;20124;-68
2021/08/14 06:48:43;;;;;;;;;;;17.40;99.90;;;;;;1890037;74;20217;-69
2021/08/14 06:51:13;;;;;;;;;;;17.40;99.90;;;;;;1889959;75;20171;-70
2021/08/14 06:53:41;;;;;;;;;;;17.40;99.90;;;;;;1888941;74;20167;-70
2021/08/14 06:56:07;;;;;;;;;;;17.50;99.90;;;;;;1891026;74;20184;-70
2021/08/14 06:58:34;;;;;;;;;;;17.50;99.90;;;;;;1861611;74;20207;-70
2021/08/14 07:01:01;;;;;;;;;;;17.60;99.90;;;;;;1896591;74;20227;-69
2021/08/14 07:03:28;;;;;;;;;;;17.70;99.90;;;;;;1921807;74;20431;-68
2021/08/14 07:05:55;;;;;;;;;;;17.70;99.90;;;;;;1898993;74;20174;-68
2021/08/14 07:08:21;;;;;;;;;;;17.80;99.90;;;;;;1889229;74;20440;-69
2021/08/14 07:10:48;;;;;;;;;;;17.80;99.90;;;;;;1884149;76;20171;-69
2021/08/14 07:13:15;;;;;;;;;;;17.90;99.90;;;;;;1892334;76;20334;-70
2021/08/14 07:15:42;;;;;;;;;;;17.90;99.90;;;;;;1892167;76;20452;-69
2021/08/14 07:18:09;;;;;;;;;;;18.00;99.90;;;;;;1891256;76;20167;-69
2021/08/14 07:20:35;;;;;;;;;;;18.10;99.90;;;;;;1911449;74;20434;-68
2021/08/14 07:23:02;;;;;;;;;;;18.20;99.90;;;;;;1904484;74;20165;-68
2021/08/14 07:25:29;;;;;;;;;;;18.20;99.90;;;;;;1889626;74;20171;-69
2021/08/14 07:27:57;;;;;;;;;;;18.20;99.90;;;;;;1892654;74;20191;-68
2021/08/14 07:30:23;;;;;;;;;;;18.40;99.90;;;;;;1889960;75;20238;-69
2021/08/14 07:32:50;;;;;;;;;;;18.40;99.90;;;;;;1885829;74;20768;-68
2021/08/14 07:35:17;;;;;;;;;;;18.40;99.90;;;;;;1907041;74;20173;-69
2021/08/14 07:37:51;;;;;;;;;;;18.50;99.90;;;;;;1909482;74;20180;-68
2021/08/14 07:40:19;;;;;;;;;;;18.50;99.90;;;;;;1892345;74;20209;-68
2021/08/14 07:42:45;;;;;;;;;;;18.50;99.90;;;;;;1892925;74;20171;-69
2021/08/14 07:45:17;;;;;;;;;;;18.60;99.90;;;;;;1892569;75;20425;-69
2021/08/14 07:47:48;;;;;;;;;;;18.60;99.90;;;;;;1892216;76;20476;-69
2021/08/14 07:50:19;;;;;;;;;;;18.60;99.90;;;;;;1892730;76;20120;-69
2021/08/14 07:52:46;;;;;;;;;;;18.60;99.90;;;;;;1890067;75;20168;-69
2021/08/14 07:55:13;;;;;;;;;;;18.60;99.90;;;;;;1892625;76;20160;-69
2021/08/14 07:57:42;;;;;;;;;;;18.70;99.90;;;;;;1892498;76;20183;-69
2021/08/14 08:00:10;;;;;;;;;;;18.70;99.90;;;;;;1892619;76;20206;-69
2021/08/14 08:02:38;;;;;;;;;;;18.70;99.90;;;;;;1892313;76;20117;-70
2021/08/14 08:05:05;;;;;;;;;;;18.70;99.90;;;;;;1892608;76;20198;-69
2021/08/14 08:07:32;;;;;;;;;;;18.80;99.90;;;;;;1891896;76;20186;-69
2021/08/14 08:09:59;;;;;;;;;;;18.90;99.90;;;;;;1890470;75;20167;-69
2021/08/14 08:12:26;;;;;;;;;;;18.90;99.90;;;;;;1861012;77;20470;-69
2021/08/14 08:14:52;;;;;;;;;;;19.00;99.90;;;;;;1861308;77;20166;-69
2021/08/14 08:17:19;;;;;;;;;;;19.00;99.90;;;;;;1861215;77;20459;-69
2021/08/14 08:19:46;;;;;;;;;;;19.10;99.90;;;;;;1873508;76;20172;-68
2021/08/14 08:22:13;;;;;;;;;;;19.10;99.90;;;;;;1892800;76;20433;-69
2021/08/14 08:24:40;;;;;;;;;;;19.30;99.90;;;;;;1893103;74;20183;-70
2021/08/14 08:27:06;;;;;;;;;;;19.30;99.90;;;;;;1893064;74;20202;-70
2021/08/14 08:29:33;;;;;;;;;;;19.40;99.90;;;;;;1897252;74;20270;-70
2021/08/14 08:32:00;;;;;;;;;;;19.40;99.90;;;;;;1895985;74;20168;-69
2021/08/14 08:34:27;;;;;;;;;;;19.40;99.90;;;;;;1890926;74;20170;-69
2021/08/14 08:36:54;;;;;;;;;;;19.50;99.90;;;;;;1891741;74;20125;-69
2021/08/14 08:39:20;;;;;;;;;;;19.60;99.90;;;;;;1897544;74;20575;-69
2021/08/14 08:41:47;;;;;;;;;;;19.60;99.90;;;;;;1893749;74;20172;-69
2021/08/14 08:44:14;;;;;;;;;;;19.70;99.90;;;;;;1896179;74;20113;-69
2021/08/14 08:46:41;;;;;;;;;;;19.70;99.90;;;;;;1892152;74;20156;-69
2021/08/14 08:49:08;;;;;;;;;;;19.70;99.90;;;;;;1893768;74;20172;-69
2021/08/14 08:51:34;;;;;;;;;;;19.70;99.90;;;;;;1930165;72;20432;-73
2021/08/14 08:54:01;;;;;;;;;;;19.70;99.90;;;;;;1923677;73;20207;-74
2021/08/14 08:56:28;;;;;;;;;;;19.70;99.90;;;;;;1914320;74;20412;-74
2021/08/14 08:58:55;;;;;;;;;;;19.70;99.90;;;;;;1916299;74;20228;-74
2021/08/14 09:01:22;;;;;;;;;;;19.70;99.90;;;;;;1917710;74;20213;-74
2021/08/14 09:03:48;;;;;;;;;;;19.70;99.90;;;;;;1908116;74;20695;-74
2021/08/14 09:06:17;;;;;;;;;;;19.80;99.90;;;;;;1927822;74;20166;-74
2021/08/14 09:08:46;;;;;;;;;;;19.90;99.90;;;;;;1923168;74;20272;-75
2021/08/14 09:11:14;;;;;;;;;;;20.00;99.90;;;;;;1918814;74;20210;-74
2021/08/14 09:13:42;;;;;;;;;;;20.00;99.90;;;;;;1926614;74;20385;-74
2021/08/14 09:16:22;;;;;;;;;;;20.10;99.90;;;;;;1927894;74;20121;-75
2021/08/14 09:19:01;;;;;;;;;;;20.10;99.90;;;;;;1918350;74;20523;-74
2021/08/14 09:21:39;;;;;;;;;;;20.10;99.90;;;;;;1912271;74;20197;-74
2021/08/14 09:24:07;;;;;;;;;;;20.30;99.90;;;;;;1921892;74;20181;-74
2021/08/14 09:26:47;;;;;;;;;;;20.40;99.90;;;;;;1912823;74;20175;-74
2021/08/14 09:29:14;;;;;;;;;;;20.40;99.90;;;;;;1918662;74;20260;-73
2021/08/14 09:31:50;;;;;;;;;;;20.40;99.90;;;;;;1913603;74;20223;-72
2021/08/14 09:34:18;;;;;;;;;;;20.40;99.90;;;;;;1924628;74;20233;-71
2021/08/14 09:36:46;;;;;;;;;;;20.40;99.90;;;;;;1915203;74;20211;-70
2021/08/14 09:39:13;;;;;;;;;;;20.40;99.90;;;;;;1916557;74;20845;-71
2021/08/14 09:41:40;;;;;;;;;;;20.40;99.90;;;;;;1927225;74;20174;-73
2021/08/14 09:44:08;;;;;;;;;;;20.30;99.90;;;;;;1914396;74;20195;-72
2021/08/14 09:46:40;;;;;;;;;;;20.40;99.90;;;;;;1915555;74;20249;-71
2021/08/14 09:49:07;;;;;;;;;;;20.30;99.90;;;;;;1912252;74;20210;-72
2021/08/14 09:51:34;;;;;;;;;;;20.40;99.90;;;;;;1915155;74;20156;-72
2021/08/14 09:54:02;;;;;;;;;;;20.60;99.90;;;;;;1909049;74;20119;-70
2021/08/14 09:56:34;;;;;;;;;;;20.70;99.90;;;;;;1915674;74;20237;-71
2021/08/14 09:58:58;;;;;;;;;;;20.80;99.90;;;;;;1911364;74;20139;-71
2021/08/14 10:01:25;;;;;;;;;;;20.80;99.90;;;;;;1903931;74;20131;-72
2021/08/14 10:03:53;;;;;;;;;;;20.90;99.90;;;;;;1918013;74;20322;-73
2021/08/14 10:06:20;;;;;;;;;;;21.00;99.90;;;;;;1926380;74;20170;-73
2021/08/14 10:08:47;;;;;;;;;;;21.00;99.90;;;;;;1912105;74;20203;-79
2021/08/14 10:11:14;;;;;;;;;;;21.10;99.90;;;;;;1925553;74;20202;-70
2021/08/14 10:13:41;;;;;;;;;;;21.20;99.90;;;;;;1914435;74;20387;-72
2021/08/14 10:16:12;;;;;;;;;;;21.40;99.90;;;;;;1914978;74;20212;-72
2021/08/14 10:18:40;;;;;;;;;;;21.50;99.90;;;;;;1910047;74;20169;-72
2021/08/14 10:21:07;;;;;;;;;;;21.40;99.90;;;;;;1924991;74;20170;-71
2021/08/14 10:23:34;;;;;;;;;;;21.40;99.90;;;;;;1914884;74;20212;-73
2021/08/14 10:26:02;;;;;;;;;;;21.40;99.90;;;;;;1913541;74;20185;-73
2021/08/14 10:28:34;;;;;;;;;;;21.50;99.90;;;;;;1915965;74;20165;-72
2021/08/14 10:31:00;;;;;;;;;;;21.70;99.90;;;;;;1896771;74;20158;-72
2021/08/14 10:33:30;;;;;;;;;;;21.80;99.90;;;;;;1908488;74;20167;-72
2021/08/14 10:35:59;;;;;;;;;;;21.90;99.90;;;;;;1914864;74;20170;-72
2021/08/14 10:38:42;;;;;;;;;;;21.90;99.90;;;;;;1918700;74;20484;-71
2021/08/14 10:41:09;;;;;;;;;;;22.00;99.90;;;;;;1926777;73;20210;-72
2021/08/14 10:44:01;;;;;;;;;;;21.80;99.90;;;;;;1924259;74;20164;-71
2021/08/14 10:46:37;;;;;;;;;;;21.80;99.90;;;;;;1909225;74;20162;-75
2021/08/14 10:49:05;;;;;;;;;;;21.70;99.90;;;;;;1905110;74;20185;-73
2021/08/14 10:51:51;;;;;;;;;;;21.80;99.90;;;;;;1924014;73;20180;-72
2021/08/14 10:54:33;;;;;;;;;;;21.80;99.90;;;;;;1947159;72;20160;-72
2021/08/14 10:57:03;;;;;;;;;;;21.70;99.90;;;;;;1940276;73;20173;-72
2021/08/14 10:59:41;;;;;;;;;;;21.60;99.90;;;;;;1920515;74;20181;-72
2021/08/14 11:02:10;;;;;;;;;;;21.60;99.90;;;;;;1937416;73;20184;-73
2021/08/14 11:04:44;;;;;;;;;;;21.50;99.90;;;;;;1937144;74;20185;-76
2021/08/14 11:07:22;;;;;;;;;;;21.50;99.90;;;;;;1918725;74;20221;-75
2021/08/14 11:09:50;;;;;;;;;;;21.50;99.90;;;;;;1919871;74;20228;-71
2021/08/14 11:12:34;;;;;;;;;;;21.50;99.90;;;;;;1916682;74;20167;-71
2021/08/14 11:15:19;;;;;;;;;;;21.40;99.90;;;;;;1906715;74;20192;-70
2021/08/14 11:17:47;;;;;;;;;;;21.40;99.90;;;;;;1914109;74;20254;-70
2021/08/14 11:20:21;;;;;;;;;;;21.30;99.90;;;;;;1931048;74;20209;-70
2021/08/14 11:22:48;;;;;;;;;;;21.30;99.90;;;;;;1923199;74;20215;-70
2021/08/14 11:25:22;;;;;;;;;;;21.30;99.90;;;;;;1910635;74;20185;-70
2021/08/14 11:27:54;;;;;;;;;;;21.30;99.90;;;;;;1906636;74;20166;-69
2021/08/14 11:30:23;;;;;;;;;;;21.30;99.90;;;;;;1908103;74;20178;-69
2021/08/14 11:32:49;;;;;;;;;;;21.40;99.90;;;;;;1917458;74;20245;-70
2021/08/14 11:35:17;;;;;;;;;;;21.40;99.90;;;;;;1918770;74;20478;-70
2021/08/14 11:37:49;;;;;;;;;;;21.40;99.90;;;;;;1913623;74;20507;-70
2021/08/14 11:40:16;;;;;;;;;;;21.40;99.90;;;;;;1914105;74;20160;-72
2021/08/14 11:42:44;;;;;;;;;;;21.30;99.90;;;;;;1914205;74;20182;-70
2021/08/14 11:45:12;;;;;;;;;;;21.30;99.90;;;;;;1923466;74;20219;-71
2021/08/14 11:47:39;;;;;;;;;;;21.40;99.90;;;;;;1930877;74;20463;-71
2021/08/14 11:50:09;;;;;;;;;;;21.40;99.90;;;;;;1921899;74;20157;-72
2021/08/14 11:52:36;;;;;;;;;;;21.40;99.90;;;;;;1911601;74;20388;-72
2021/08/14 11:55:08;;;;;;;;;;;21.30;99.90;;;;;;1914071;74;20185;-71
2021/08/14 11:57:36;;;;;;;;;;;21.30;99.90;;;;;;1904336;74;20234;-70
2021/08/14 12:00:06;;;;;;;;;;;21.30;99.90;;;;;;1917342;74;20350;-71
2021/08/14 12:02:33;;;;;;;;;;;21.40;99.90;;;;;;1928362;74;20191;-71
2021/08/14 12:04:59;;;;;;;;;;;21.50;99.90;;;;;;1931434;74;20179;-71
2021/08/14 12:07:26;;;;;;;;;;;21.50;99.90;;;;;;1915342;74;20137;-71
2021/08/14 12:09:53;;;;;;;;;;;21.60;99.90;;;;;;1917076;74;20798;-71
2021/08/14 12:12:21;;;;;;;;;;;21.60;99.90;;;;;;1917678;74;20223;-71
2021/08/14 12:14:48;;;;;;;;;;;21.80;99.90;;;;;;1910553;74;20204;-71
2021/08/14 12:17:15;;;;;;;;;;;21.90;99.90;;;;;;1925179;74;20167;-71
2021/08/14 12:19:49;;;;;;;;;;;22.10;99.90;;;;;;1916154;74;21251;-71
2021/08/14 12:22:16;;;;;;;;;;;22.20;99.90;;;;;;1914169;74;20208;-71
2021/08/14 12:24:45;;;;;;;;;;;22.30;99.90;;;;;;1916121;74;20226;-70
2021/08/14 12:27:30;;;;;;;;;;;22.40;99.90;;;;;;1915133;74;20179;-71
2021/08/14 12:29:58;;;;;;;;;;;22.30;99.90;;;;;;1918229;74;21254;-73
2021/08/14 12:32:33;;;;;;;;;;;22.30;99.90;;;;;;1918491;74;20149;-73
2021/08/14 12:35:15;;;;;;;;;;;22.30;99.90;;;;;;1924497;74;20267;-71
2021/08/14 12:37:42;;;;;;;;;;;22.30;99.90;;;;;;1903226;74;20181;-72
2021/08/14 12:40:10;;;;;;;;;;;22.60;99.90;;;;;;1918593;74;20381;-72
2021/08/14 12:42:37;;;;;;;;;;;22.60;99.90;;;;;;1928575;74;20522;-73
2021/08/14 12:45:15;;;;;;;;;;;22.60;99.90;;;;;;1929862;74;20171;-73
2021/08/14 12:47:42;;;;;;;;;;;22.50;99.90;;;;;;1914969;74;20146;-71
2021/08/14 12:50:13;;;;;;;;;;;22.40;99.90;;;;;;1928494;74;20549;-71
2021/08/14 12:52:41;;;;;;;;;;;22.30;99.90;;;;;;1934085;74;20492;-72
2021/08/14 12:55:08;;;;;;;;;;;22.30;99.90;;;;;;1904339;74;20431;-71
2021/08/14 12:57:34;;;;;;;;;;;22.30;99.90;;;;;;1904533;74;20193;-66
2021/08/14 13:00:01;;;;;;;;;;;22.50;99.90;;;;;;1904246;74;20189;-72
2021/08/14 13:02:28;;;;;;;;;;;22.90;99.90;;;;;;1923176;74;20233;-74
2021/08/14 13:04:59;;;;;;;;;;;23.10;99.90;;;;;;1903449;74;20165;-73
2021/08/14 13:07:23;;;;;;;;;;;23.30;99.90;;;;;;1909868;74;20172;-72
2021/08/14 13:09:50;;;;;;;;;;;23.40;99.90;;;;;;1920256;74;20170;-72
2021/08/14 13:12:17;;;;;;;;;;;23.40;99.90;;;;;;1903045;74;20202;-72
2021/08/14 13:14:44;;;;;;;;;;;23.30;99.90;;;;;;1915726;74;20174;-72
2021/08/14 13:17:11;;;;;;;;;;;23.30;99.90;;;;;;1913478;74;20190;-69
2021/08/14 13:19:37;;;;;;;;;;;23.50;99.90;;;;;;1902983;74;20165;-71
2021/08/14 13:22:04;;;;;;;;;;;23.50;99.90;;;;;;1907332;74;20188;-72
2021/08/14 13:24:31;;;;;;;;;;;23.70;99.90;;;;;;1918390;74;20211;-75
2021/08/14 13:27:00;;;;;;;;;;;23.50;99.90;;;;;;1907781;74;20189;-72
2021/08/14 13:29:26;;;;;;;;;;;23.40;99.90;;;;;;1931471;74;20591;-72
2021/08/14 13:31:53;;;;;;;;;;;23.60;99.90;;;;;;1909046;74;20220;-72
2021/08/14 13:34:20;;;;;;;;;;;23.50;99.90;;;;;;1904713;74;20150;-72
2021/08/14 13:36:47;;;;;;;;;;;23.40;99.90;;;;;;1902229;75;20162;-72
2021/08/14 13:39:13;;;;;;;;;;;23.70;99.90;;;;;;1902492;74;20170;-72
2021/08/14 13:41:41;;;;;;;;;;;23.60;99.90;;;;;;1902187;75;20467;-72
2021/08/14 13:44:07;;;;;;;;;;;23.50;99.90;;;;;;1902282;75;20177;-73
2021/08/14 13:46:35;;;;;;;;;;;23.50;99.90;;;;;;1919836;74;20171;-73
2021/08/14 13:49:01;;;;;;;;;;;23.70;99.90;;;;;;1936045;74;20179;-73
2021/08/14 13:51:28;;;;;;;;;;;23.80;99.90;;;;;;1905221;74;20115;-73
2021/08/14 13:53:55;;;;;;;;;;;23.90;99.90;;;;;;1907008;74;20491;-72
2021/08/14 13:56:22;;;;;;;;;;;24.00;99.90;;;;;;1902512;75;20213;-73
2021/08/14 13:58:49;;;;;;;;;;;23.90;99.90;;;;;;1902571;75;20212;-72
2021/08/14 14:01:15;;;;;;;;;;;24.00;99.90;;;;;;1902612;75;20220;-73
2021/08/14 14:03:42;;;;;;;;;;;24.00;99.90;;;;;;1923259;74;20116;-72
2021/08/14 14:06:09;;;;;;;;;;;24.00;99.90;;;;;;1936168;74;20582;-72
2021/08/14 14:08:36;;;;;;;;;;;24.10;99.90;;;;;;1936154;74;20168;-72
2021/08/14 14:11:03;;;;;;;;;;;23.90;99.90;;;;;;1936204;74;20402;-73
2021/08/14 14:13:29;;;;;;;;;;;24.10;99.90;;;;;;1909049;74;20169;-72
2021/08/14 14:15:56;;;;;;;;;;;24.20;99.90;;;;;;1932134;74;20458;-73
2021/08/14 14:18:23;;;;;;;;;;;24.30;99.90;;;;;;1936226;74;20160;-73
2021/08/14 14:20:50;;;;;;;;;;;24.30;99.90;;;;;;1922720;74;20170;-72